Time;durP1;ratioP1;P1;durP2;ratioP2;P2;SDS_P1;SDS_P2;PMS_P1;PMS_P2;Temp;Humidity;BMP_temperature;BMP_pressure;BME280_temperature;BME280_humidity;BME280_pressure;Samples;Min_cycle;Max_cycle;Signal;HPM_P1;HPM_P2
2023/06/18 00:01:42;;;;;;;1999.90;999.90;;;14.90;96.20;;;;;;5031119;28;20555;-78
2023/06/18 00:04:07;;;;;;;1999.90;999.90;;;14.80;96.20;;;;;;5016436;28;20504;-79
2023/06/18 00:06:33;;;;;;;1999.90;999.90;;;14.80;96.60;;;;;;5019310;28;20062;-79
2023/06/18 00:08:59;;;;;;;1999.90;999.90;;;14.80;96.60;;;;;;5045927;28;20050;-79
2023/06/18 00:11:24;;;;;;;1999.90;999.90;;;14.80;96.60;;;;;;5028640;28;20034;-78
2023/06/18 00:13:50;;;;;;;1999.90;999.90;;;14.70;96.60;;;;;;5029716;28;20030;-79
2023/06/18 00:16:16;;;;;;;1999.90;999.90;;;14.70;96.70;;;;;;5029216;28;20048;-79
2023/06/18 00:18:41;;;;;;;1999.90;999.90;;;14.60;96.70;;;;;;5028972;28;20045;-79
2023/06/18 00:21:10;;;;;;;1999.90;999.90;;;14.50;96.40;;;;;;5028831;28;20034;-79
2023/06/18 00:23:36;;;;;;;1999.90;999.90;;;14.60;96.60;;;;;;5029046;28;20030;-79
2023/06/18 00:26:02;;;;;;;1999.90;999.90;;;14.50;96.30;;;;;;5027522;28;20026;-78
2023/06/18 00:28:28;;;;;;;1999.90;999.90;;;14.50;96.10;;;;;;5029074;28;20034;-78
2023/06/18 00:30:54;;;;;;;1999.90;999.90;;;14.50;96.30;;;;;;5043967;28;20026;-79
2023/06/18 00:33:22;;;;;;;1999.90;999.90;;;14.50;96.20;;;;;;5027216;28;20026;-79
2023/06/18 00:35:48;;;;;;;1999.90;999.90;;;14.50;96.20;;;;;;5025038;28;20030;-78
2023/06/18 00:38:16;;;;;;;1999.90;999.90;;;14.40;96.30;;;;;;5027008;28;20038;-78
2023/06/18 00:40:42;;;;;;;1999.90;999.90;;;14.40;96.80;;;;;;5026170;28;20034;-78
2023/06/18 00:43:08;;;;;;;1999.90;999.90;;;14.40;96.60;;;;;;5025434;28;20030;-79
2023/06/18 00:45:34;;;;;;;1999.90;999.90;;;14.40;96.50;;;;;;5042183;28;20400;-79
2023/06/18 00:48:00;;;;;;;1999.90;999.90;;;14.40;96.70;;;;;;5025168;28;20109;-79
2023/06/18 00:50:28;;;;;;;1999.90;999.90;;;14.40;96.40;;;;;;5025448;28;20035;-78
2023/06/18 00:52:59;;;;;;;1999.90;999.90;;;14.30;96.90;;;;;;5024858;28;20026;-79
2023/06/18 00:55:26;;;;;;;1999.90;999.90;;;14.40;97.40;;;;;;5041297;28;20037;-79
2023/06/18 00:57:59;;;;;;;1999.90;999.90;;;14.30;97.50;;;;;;5023966;28;20066;-78
2023/06/18 01:00:28;;;;;;;1999.90;999.90;;;14.20;98.10;;;;;;5023630;28;20025;-79
2023/06/18 01:02:55;;;;;;;1999.90;999.90;;;14.20;97.80;;;;;;5023742;28;20122;-79
2023/06/18 01:05:22;;;;;;;1999.90;999.90;;;14.20;97.90;;;;;;5022564;28;20037;-79
2023/06/18 01:07:49;;;;;;;1999.90;999.90;;;14.10;97.50;;;;;;5022848;28;20137;-79
2023/06/18 01:10:16;;;;;;;1999.90;999.90;;;14.10;97.80;;;;;;5021025;28;20034;-79
2023/06/18 01:12:45;;;;;;;1999.90;999.90;;;14.00;98.40;;;;;;5019612;28;20034;-79
2023/06/18 01:15:12;;;;;;;1999.90;999.90;;;14.00;98.70;;;;;;5020389;28;20114;-79
2023/06/18 01:17:39;;;;;;;1999.90;999.90;;;14.00;99.10;;;;;;5018213;28;20028;-79
2023/06/18 01:20:10;;;;;;;1999.90;999.90;;;14.00;98.30;;;;;;5018808;28;20097;-79
2023/06/18 01:22:44;;;;;;;1999.90;999.90;;;13.90;98.60;;;;;;5016541;28;20061;-79
2023/06/18 01:25:11;;;;;;;1999.90;999.90;;;13.80;98.70;;;;;;5017029;28;20026;-79
2023/06/18 01:27:40;;;;;;;1999.90;999.90;;;13.90;98.20;;;;;;5016668;28;20049;-79
2023/06/18 01:30:13;;;;;;;1999.90;999.90;;;13.90;98.60;;;;;;5018580;28;20110;-79
2023/06/18 01:32:40;;;;;;;1999.90;999.90;;;13.70;98.50;;;;;;5016959;28;20161;-78
2023/06/18 01:35:07;;;;;;;1999.90;999.90;;;13.70;98.70;;;;;;5017712;28;20870;-79
2023/06/18 01:37:59;;;;;;;1999.90;999.90;;;13.70;98.90;;;;;;5018722;28;20503;-79
2023/06/18 01:40:34;;;;;;;1999.90;999.90;;;13.70;99.40;;;;;;5022157;28;20034;-79
2023/06/18 01:43:09;;;;;;;1999.90;999.90;;;13.60;98.60;;;;;;5023011;28;20038;-79
2023/06/18 01:45:45;;;;;;;1999.90;999.90;;;13.60;99.20;;;;;;5023421;28;20089;-79
2023/06/18 01:48:13;;;;;;;1999.90;999.90;;;13.50;98.50;;;;;;5022880;28;20045;-79
2023/06/18 01:50:42;;;;;;;1999.90;999.90;;;13.40;99.40;;;;;;5021879;28;20030;-79
2023/06/18 01:53:08;;;;;;;1999.90;999.90;;;13.50;99.60;;;;;;5022086;28;20045;-79
2023/06/18 01:55:37;;;;;;;1999.90;999.90;;;13.60;99.60;;;;;;5021238;28;20038;-79
2023/06/18 01:58:03;;;;;;;1999.90;999.90;;;13.50;99.70;;;;;;5037296;28;20049;-79
2023/06/18 02:00:28;;;;;;;1999.90;999.90;;;13.60;99.90;;;;;;5023800;28;20038;-79
2023/06/18 02:02:54;;;;;;;1999.90;999.90;;;13.50;99.90;;;;;;5045623;28;20045;-79
2023/06/18 02:05:20;;;;;;;1999.90;999.90;;;13.50;99.50;;;;;;5045954;28;20094;-79
2023/06/18 02:07:45;;;;;;;1999.90;999.90;;;13.50;99.60;;;;;;5028225;28;20042;-79
2023/06/18 02:10:11;;;;;;;1999.90;999.90;;;13.40;99.30;;;;;;5028091;28;20038;-79
2023/06/18 02:12:36;;;;;;;1999.90;999.90;;;13.30;99.50;;;;;;5018769;28;20062;-79
2023/06/18 02:15:02;;;;;;;1999.90;999.90;;;13.30;99.50;;;;;;5034367;28;20042;-79
2023/06/18 02:17:28;;;;;;;1999.90;999.90;;;13.20;99.80;;;;;;5016902;28;20047;-79
2023/06/18 02:19:54;;;;;;;1999.90;999.90;;;13.20;99.70;;;;;;5016879;28;20026;-79
2023/06/18 02:22:22;;;;;;;1999.90;999.90;;;13.20;99.70;;;;;;5020895;28;20034;-79
2023/06/18 02:24:48;;;;;;;1999.90;999.90;;;13.30;99.70;;;;;;5025704;28;20583;-79
2023/06/18 02:27:13;;;;;;;1999.90;999.90;;;13.10;99.90;;;;;;5026975;28;20047;-79
2023/06/18 02:29:41;;;;;;;1999.90;999.90;;;13.20;99.90;;;;;;5043878;28;20034;-79
2023/06/18 02:32:06;;;;;;;1999.90;999.90;;;13.10;99.90;;;;;;5042586;28;20034;-79
2023/06/18 02:34:32;;;;;;;1999.90;999.90;;;13.10;99.90;;;;;;5027137;28;20030;-79
2023/06/18 02:36:57;;;;;;;1999.90;999.90;;;13.10;99.90;;;;;;5030462;28;20531;-79
2023/06/18 02:39:23;;;;;;;1999.90;999.90;;;13.10;99.90;;;;;;5030132;28;20038;-79
2023/06/18 02:41:48;;;;;;;1999.90;999.90;;;13.00;99.90;;;;;;5028946;28;20054;-79
2023/06/18 02:44:14;;;;;;;1999.90;999.90;;;12.90;99.90;;;;;;5045112;28;20053;-79
2023/06/18 02:46:40;;;;;;;1999.90;999.90;;;13.00;99.90;;;;;;5028215;28;20069;-79
2023/06/18 02:49:05;;;;;;;1999.90;999.90;;;13.00;99.90;;;;;;5027856;28;20031;-79
2023/06/18 02:51:31;;;;;;;1999.90;999.90;;;13.10;99.90;;;;;;5027954;28;20042;-79
2023/06/18 02:53:59;;;;;;;1999.90;999.90;;;13.10;99.90;;;;;;5027372;28;20030;-79
2023/06/18 02:56:26;;;;;;;1999.90;999.90;;;13.10;99.90;;;;;;5026300;28;20054;-79
2023/06/18 02:58:55;;;;;;;1999.90;999.90;;;13.10;99.90;;;;;;5026932;28;20149;-79
2023/06/18 03:01:24;;;;;;;1999.90;999.90;;;13.10;99.90;;;;;;5026235;28;20030;-79
2023/06/18 03:03:51;;;;;;;1999.90;999.90;;;13.10;99.90;;;;;;5026463;28;20034;-79
2023/06/18 03:06:16;;;;;;;1999.90;999.90;;;13.00;99.90;;;;;;5041993;28;20133;-79
2023/06/18 03:08:42;;;;;;;1999.90;999.90;;;12.70;99.90;;;;;;5025280;28;20121;-79
2023/06/18 03:11:08;;;;;;;1999.90;999.90;;;12.90;99.90;;;;;;5026077;28;20086;-79
2023/06/18 03:13:34;;;;;;;1999.90;999.90;;;12.80;99.90;;;;;;5027154;28;20062;-79
2023/06/18 03:16:00;;;;;;;1999.90;999.90;;;12.80;99.90;;;;;;5025588;28;20034;-79
2023/06/18 03:18:25;;;;;;;1999.90;999.90;;;12.80;99.90;;;;;;5025551;28;20026;-79
2023/06/18 03:20:51;;;;;;;1999.90;999.90;;;12.80;99.90;;;;;;5041825;28;20035;-80
2023/06/18 03:23:17;;;;;;;1999.90;999.90;;;12.80;99.90;;;;;;5025324;28;20038;-79
2023/06/18 03:25:42;;;;;;;1999.90;999.90;;;12.80;99.90;;;;;;5024997;28;20037;-79
2023/06/18 03:28:08;;;;;;;1999.90;999.90;;;12.90;99.90;;;;;;5024106;28;20077;-79
2023/06/18 03:30:33;;;;;;;1999.90;999.90;;;12.80;99.90;;;;;;5022902;28;20034;-79
2023/06/18 03:33:02;;;;;;;1999.90;999.90;;;12.90;99.90;;;;;;5022017;28;20037;-79
2023/06/18 03:35:28;;;;;;;1999.90;999.90;;;12.90;99.90;;;;;;5022685;28;20039;-79
2023/06/18 03:37:54;;;;;;;1999.90;999.90;;;12.90;99.90;;;;;;5020322;28;20038;-79
2023/06/18 03:40:20;;;;;;;1999.90;999.90;;;12.90;99.90;;;;;;5036522;28;20503;-79
2023/06/18 03:42:45;;;;;;;1999.90;999.90;;;13.00;99.90;;;;;;5020385;28;20855;-79
2023/06/18 03:45:11;;;;;;;1999.90;999.90;;;13.00;99.90;;;;;;5020335;28;20038;-79
2023/06/18 03:47:37;;;;;;;1999.90;999.90;;;13.10;99.90;;;;;;5023147;28;20034;-79
2023/06/18 03:50:02;;;;;;;1999.90;999.90;;;13.00;99.90;;;;;;5025624;28;20034;-79
2023/06/18 03:52:28;;;;;;;1999.90;999.90;;;13.00;99.90;;;;;;5031080;28;20042;-79
2023/06/18 03:54:53;;;;;;;1999.90;999.90;;;13.00;99.90;;;;;;5032301;28;20090;-79
2023/06/18 03:57:19;;;;;;;1999.90;999.90;;;13.00;99.90;;;;;;5028986;28;20102;-79
2023/06/18 03:59:45;;;;;;;1999.90;999.90;;;13.00;99.90;;;;;;5030498;28;20054;-78
2023/06/18 04:02:12;;;;;;;1999.90;999.90;;;13.20;99.90;;;;;;5031404;28;20046;-79
2023/06/18 04:04:38;;;;;;;1999.90;999.90;;;13.10;99.90;;;;;;5030352;28;20046;-79
2023/06/18 04:07:04;;;;;;;1999.90;999.90;;;13.20;99.90;;;;;;5029346;28;20404;-79
2023/06/18 04:09:29;;;;;;;1999.90;999.90;;;13.30;99.90;;;;;;5031175;28;20034;-79
2023/06/18 04:11:56;;;;;;;1999.90;999.90;;;13.30;99.90;;;;;;5025176;28;20045;-79
2023/06/18 04:14:22;;;;;;;1999.90;999.90;;;13.30;99.90;;;;;;5020972;28;20037;-79
2023/06/18 04:16:47;;;;;;;1999.90;999.90;;;13.40;99.90;;;;;;5034707;28;20171;-79
2023/06/18 04:19:13;;;;;;;1999.90;999.90;;;13.50;99.90;;;;;;5020081;28;20527;-79
2023/06/18 04:21:38;;;;;;;1999.90;999.90;;;13.40;99.90;;;;;;5022334;28;20039;-79
2023/06/18 04:24:05;;;;;;;1999.90;999.90;;;13.50;99.90;;;;;;5021821;28;20030;-79
2023/06/18 04:26:30;;;;;;;1999.90;999.90;;;13.50;99.90;;;;;;5023653;28;20042;-79
2023/06/18 04:28:56;;;;;;;1999.90;999.90;;;13.50;99.90;;;;;;5025788;28;20033;-79
2023/06/18 04:31:23;;;;;;;1999.90;999.90;;;13.60;99.90;;;;;;5024280;28;20040;-79
2023/06/18 04:33:49;;;;;;;1999.90;999.90;;;13.70;99.90;;;;;;5025072;28;20101;-79
2023/06/18 04:36:15;;;;;;;1999.90;999.90;;;13.70;99.90;;;;;;5024384;28;20058;-79
2023/06/18 04:38:41;;;;;;;1999.90;999.90;;;13.90;99.70;;;;;;5024691;28;20094;-79
2023/06/18 04:41:06;;;;;;;1999.90;999.90;;;14.00;99.50;;;;;;5023119;28;20077;-80
2023/06/18 04:43:32;;;;;;;1999.90;999.90;;;14.00;99.10;;;;;;5023585;28;20030;-79
2023/06/18 04:45:58;;;;;;;1999.90;999.90;;;14.10;99.40;;;;;;5024501;28;20027;-79
2023/06/18 04:48:24;;;;;;;1999.90;999.90;;;14.20;99.90;;;;;;5024732;28;20106;-79
2023/06/18 04:50:49;;;;;;;1999.90;999.90;;;14.20;99.80;;;;;;5023898;28;20053;-79
2023/06/18 04:53:16;;;;;;;1999.90;999.90;;;14.30;99.40;;;;;;5025194;28;20058;-79
2023/06/18 04:55:43;;;;;;;1999.90;999.90;;;14.30;99.10;;;;;;5026145;28;20026;-79
2023/06/18 04:58:10;;;;;;;1999.90;999.90;;;14.40;99.40;;;;;;5024779;28;20045;-79
2023/06/18 05:00:35;;;;;;;1999.90;999.90;;;14.40;98.60;;;;;;5026557;28;20030;-80
2023/06/18 05:03:01;;;;;;;1999.90;999.90;;;14.40;98.40;;;;;;5026153;28;20035;-79
2023/06/18 05:05:27;;;;;;;1999.90;999.90;;;14.50;98.20;;;;;;5025820;28;20030;-79
2023/06/18 05:07:53;;;;;;;1999.90;999.90;;;14.70;98.10;;;;;;5025828;28;20052;-79
2023/06/18 05:10:19;;;;;;;1999.90;999.90;;;14.80;98.40;;;;;;5025357;28;20037;-79
2023/06/18 05:12:45;;;;;;;1999.90;999.90;;;14.90;98.10;;;;;;5041275;28;20026;-79
2023/06/18 05:15:10;;;;;;;1999.90;999.90;;;15.10;97.50;;;;;;5024189;28;20038;-79
2023/06/18 05:17:36;;;;;;;1999.90;999.90;;;15.20;97.00;;;;;;5021522;28;20041;-79
2023/06/18 05:20:04;;;;;;;1999.90;999.90;;;15.30;96.70;;;;;;5036931;28;20061;-79
2023/06/18 05:22:30;;;;;;;1999.90;999.90;;;15.30;96.50;;;;;;5021830;28;20041;-79
2023/06/18 05:24:55;;;;;;;1999.90;999.90;;;15.40;96.40;;;;;;5022253;28;20030;-79
2023/06/18 05:27:21;;;;;;;1999.90;999.90;;;15.50;96.20;;;;;;5036916;28;20049;-79
2023/06/18 05:29:47;;;;;;;1999.90;999.90;;;15.60;96.10;;;;;;5020692;28;20497;-79
2023/06/18 05:32:12;;;;;;;1999.90;999.90;;;15.70;95.90;;;;;;5018871;28;20038;-79
2023/06/18 05:34:38;;;;;;;1999.90;999.90;;;15.80;96.00;;;;;;5019874;28;20046;-79
2023/06/18 05:37:03;;;;;;;1999.90;999.90;;;15.90;95.90;;;;;;5019582;28;20081;-79
2023/06/18 05:39:29;;;;;;;1999.90;999.90;;;16.00;95.50;;;;;;5021633;28;20026;-79
2023/06/18 05:41:54;;;;;;;1999.90;999.90;;;16.20;95.60;;;;;;5022163;28;20077;-80
2023/06/18 05:44:20;;;;;;;1999.90;999.90;;;16.20;95.30;;;;;;5020845;28;20026;-79
2023/06/18 05:46:45;;;;;;;1999.90;999.90;;;16.40;95.00;;;;;;5019612;28;20042;-79
2023/06/18 05:49:11;;;;;;;1999.90;999.90;;;16.40;94.80;;;;;;5020370;28;20129;-79
2023/06/18 05:51:36;;;;;;;1999.90;999.90;;;16.50;95.40;;;;;;5016924;28;20098;-79
2023/06/18 05:54:02;;;;;;;1999.90;999.90;;;16.80;95.00;;;;;;5017597;28;20034;-79
2023/06/18 05:56:28;;;;;;;1999.90;999.90;;;16.90;94.50;;;;;;5022094;28;20042;-79
2023/06/18 05:58:54;;;;;;;1999.90;999.90;;;16.90;93.80;;;;;;5020346;28;20030;-79
2023/06/18 06:01:20;;;;;;;1999.90;999.90;;;17.10;93.90;;;;;;5019925;28;20856;-79
2023/06/18 06:03:45;;;;;;;1999.90;999.90;;;17.10;93.70;;;;;;5017245;28;20034;-79
2023/06/18 06:06:11;;;;;;;1999.90;999.90;;;17.20;93.50;;;;;;5016189;28;20038;-77
2023/06/18 06:08:36;;;;;;;1999.90;999.90;;;17.40;93.30;;;;;;5014625;28;20042;-77
2023/06/18 06:11:02;;;;;;;1999.90;999.90;;;17.50;93.30;;;;;;5017504;28;20038;-77
2023/06/18 06:13:27;;;;;;;1999.90;999.90;;;17.60;93.50;;;;;;5018183;28;20125;-77
2023/06/18 06:15:53;;;;;;;1999.90;999.90;;;17.60;93.30;;;;;;5017852;28;20114;-77
2023/06/18 06:18:18;;;;;;;1999.90;999.90;;;17.60;93.50;;;;;;5017826;28;20034;-77
2023/06/18 06:20:44;;;;;;;1999.90;999.90;;;17.70;93.40;;;;;;5016308;28;20034;-77
2023/06/18 06:23:10;;;;;;;1999.90;999.90;;;17.70;93.20;;;;;;5017518;28;20035;-77
2023/06/18 06:25:35;;;;;;;1999.90;999.90;;;17.90;93.30;;;;;;5017882;28;20062;-77
2023/06/18 06:28:01;;;;;;;1999.90;999.90;;;18.00;92.90;;;;;;5017645;28;20125;-77
2023/06/18 06:30:26;;;;;;;1999.90;999.90;;;18.20;92.90;;;;;;5017742;28;20040;-77
2023/06/18 06:32:52;;;;;;;1999.90;999.90;;;18.30;92.80;;;;;;5017304;28;20045;-77
2023/06/18 06:35:17;;;;;;;1999.90;999.90;;;18.50;92.60;;;;;;5017299;28;20034;-77
2023/06/18 06:37:43;;;;;;;1999.90;999.90;;;18.50;92.90;;;;;;5017234;28;20034;-77
2023/06/18 06:40:09;;;;;;;1999.90;999.90;;;18.60;92.10;;;;;;5017493;28;20038;-77
2023/06/18 06:42:35;;;;;;;1999.90;999.90;;;18.80;91.50;;;;;;5017111;28;20045;-77
2023/06/18 06:45:02;;;;;;;1999.90;999.90;;;18.90;91.70;;;;;;5016105;28;20481;-77
2023/06/18 06:47:27;;;;;;;1999.90;999.90;;;19.10;91.90;;;;;;5017444;28;20112;-77
2023/06/18 06:49:53;;;;;;;1999.90;999.90;;;19.30;91.00;;;;;;5017171;28;20057;-77
2023/06/18 06:52:18;;;;;;;1999.90;999.90;;;19.40;90.90;;;;;;5017035;28;20432;-77
2023/06/18 06:54:44;;;;;;;1999.90;999.90;;;19.60;90.70;;;;;;5016998;28;20054;-77
2023/06/18 06:57:10;;;;;;;1999.90;999.90;;;19.70;91.00;;;;;;5016956;28;20034;-77
2023/06/18 06:59:35;;;;;;;1999.90;999.90;;;19.80;90.50;;;;;;5017516;28;20034;-77
2023/06/18 07:02:00;;;;;;;1999.90;999.90;;;20.10;91.00;;;;;;5015298;28;21674;-77
2023/06/18 07:04:27;;;;;;;1999.90;999.90;;;20.30;90.30;;;;;;5017302;28;20389;-77
2023/06/18 07:06:52;;;;;;;1999.90;999.90;;;20.40;88.30;;;;;;5016353;28;20038;-77
2023/06/18 07:09:18;;;;;;;1999.90;999.90;;;20.50;88.30;;;;;;5017039;28;20034;-77
2023/06/18 07:11:43;;;;;;;1999.90;999.90;;;20.60;86.70;;;;;;5016808;28;20031;-77
2023/06/18 07:14:09;;;;;;;1999.90;999.90;;;20.80;86.10;;;;;;5017171;28;20038;-77
2023/06/18 07:16:35;;;;;;;1999.90;999.90;;;21.00;84.40;;;;;;5016885;28;20057;-77
2023/06/18 07:19:01;;;;;;;1999.90;999.90;;;21.20;83.50;;;;;;5016891;28;20109;-77
2023/06/18 07:21:27;;;;;;;1999.90;999.90;;;21.50;83.80;;;;;;5014976;28;20069;-77
2023/06/18 07:23:52;;;;;;;1999.90;999.90;;;21.70;81.70;;;;;;5017185;28;20074;-77
2023/06/18 07:26:18;;;;;;;1999.90;999.90;;;21.90;81.00;;;;;;5016819;28;20483;-77
2023/06/18 07:28:43;;;;;;;1999.90;999.90;;;22.10;79.00;;;;;;5016939;28;20121;-77
2023/06/18 07:31:09;;;;;;;1999.90;999.90;;;22.30;79.30;;;;;;5016185;28;20039;-77
2023/06/18 07:33:34;;;;;;;1999.90;999.90;;;22.50;78.20;;;;;;5016681;28;20077;-77
2023/06/18 07:36:00;;;;;;;1999.90;999.90;;;22.70;77.50;;;;;;5016535;28;20034;-77
2023/06/18 07:38:25;;;;;;;1999.90;999.90;;;22.80;78.60;;;;;;5031717;28;20046;-77
2023/06/18 07:40:51;;;;;;;1999.90;999.90;;;22.90;77.80;;;;;;5014952;28;20396;-77
2023/06/18 07:43:17;;;;;;;1999.90;999.90;;;23.00;77.60;;;;;;5016688;28;20042;-77
2023/06/18 07:45:43;;;;;;;1999.90;999.90;;;23.40;78.80;;;;;;5016949;28;20030;-77
2023/06/18 07:48:08;;;;;;;1999.90;999.90;;;23.60;77.50;;;;;;5015060;28;20042;-77
2023/06/18 07:50:34;;;;;;;1999.90;999.90;;;23.90;75.70;;;;;;5032152;28;20062;-77
2023/06/18 07:53:00;;;;;;;1999.90;999.90;;;24.00;74.40;;;;;;5016542;28;20038;-77
2023/06/18 07:55:25;;;;;;;1999.90;999.90;;;24.10;74.40;;;;;;5016680;28;20030;-77
2023/06/18 07:57:51;;;;;;;1999.90;999.90;;;24.30;76.70;;;;;;5014727;28;20038;-77
2023/06/18 08:00:16;;;;;;;1999.90;999.90;;;24.40;74.60;;;;;;5016428;28;20034;-77
2023/06/18 08:02:43;;;;;;;1999.90;999.90;;;24.50;74.30;;;;;;5016158;28;20035;-77
2023/06/18 08:05:08;;;;;;;1999.90;999.90;;;24.80;73.20;;;;;;5014942;28;20073;-77
2023/06/18 08:07:35;;;;;;;1999.90;999.90;;;25.10;70.70;;;;;;5016971;28;20311;-77
2023/06/18 08:10:00;;;;;;;1999.90;999.90;;;25.30;72.90;;;;;;5017304;28;20064;-77
2023/06/18 08:12:26;;;;;;;1999.90;999.90;;;25.50;70.80;;;;;;5016067;28;20038;-77
2023/06/18 08:14:52;;;;;;;1999.90;999.90;;;25.70;69.00;;;;;;5016418;28;20074;-77
2023/06/18 08:17:17;;;;;;;1999.90;999.90;;;26.10;68.20;;;;;;5015632;28;20065;-77
2023/06/18 08:19:45;;;;;;;1999.90;999.90;;;26.40;68.20;;;;;;5016337;28;20023;-77
2023/06/18 08:22:11;;;;;;;1999.90;999.90;;;26.50;68.40;;;;;;5015720;28;20488;-77
2023/06/18 08:24:37;;;;;;;1999.90;999.90;;;26.60;68.90;;;;;;5016350;28;20035;-77
2023/06/18 08:27:03;;;;;;;1999.90;999.90;;;26.70;68.80;;;;;;5015762;28;20042;-77
2023/06/18 08:29:28;;;;;;;1999.90;999.90;;;26.50;67.50;;;;;;5015825;28;20037;-77
2023/06/18 08:31:54;;;;;;;1999.90;999.90;;;26.50;68.60;;;;;;5014629;28;20627;-77
2023/06/18 08:34:20;;;;;;;1999.90;999.90;;;26.80;66.90;;;;;;5015456;28;20072;-77
2023/06/18 08:36:47;;;;;;;1999.90;999.90;;;27.20;66.20;;;;;;5014450;28;20113;-78
2023/06/18 08:39:13;;;;;;;1999.90;999.90;;;27.00;63.80;;;;;;5014888;28;20501;-77
2023/06/18 08:41:42;;;;;;;1999.90;999.90;;;26.70;65.80;;;;;;5016396;28;20125;-78
2023/06/18 08:44:07;;;;;;;1999.90;999.90;;;27.00;64.20;;;;;;5016291;28;20097;-77
2023/06/18 08:46:35;;;;;;;1999.90;999.90;;;27.50;65.60;;;;;;5016324;28;20492;-77
2023/06/18 08:49:02;;;;;;;1999.90;999.90;;;27.70;62.90;;;;;;5015511;28;20134;-77
2023/06/18 08:51:27;;;;;;;1999.90;999.90;;;27.70;63.20;;;;;;5015697;28;20045;-78
2023/06/18 08:54:12;;;;;;;1999.90;999.90;;;28.00;61.50;;;;;;5016369;28;20030;-78
2023/06/18 08:56:44;;;;;;;1999.90;999.90;;;28.20;59.80;;;;;;5014143;28;20041;-77
2023/06/18 08:59:11;;;;;;;1999.90;999.90;;;28.20;61.50;;;;;;5016002;28;20034;-77
2023/06/18 09:01:37;;;;;;;1999.90;999.90;;;28.20;59.50;;;;;;5015629;28;20118;-77
2023/06/18 09:04:04;;;;;;;1999.90;999.90;;;28.30;60.90;;;;;;5015631;28;20061;-77
2023/06/18 09:06:30;;;;;;;1999.90;999.90;;;28.40;58.90;;;;;;5014766;28;20137;-77
2023/06/18 09:08:58;;;;;;;1999.90;999.90;;;28.40;58.80;;;;;;5013934;28;20488;-77
2023/06/18 09:11:23;;;;;;;1999.90;999.90;;;28.40;57.90;;;;;;5013527;28;20444;-77
2023/06/18 09:13:49;;;;;;;1999.90;999.90;;;28.40;58.30;;;;;;5015058;28;20042;-77
2023/06/18 09:16:14;;;;;;;1999.90;999.90;;;28.70;57.50;;;;;;5014773;28;20503;-77
2023/06/18 09:18:40;;;;;;;1999.90;999.90;;;29.00;57.10;;;;;;5015247;28;20038;-77
2023/06/18 09:21:06;;;;;;;1999.90;999.90;;;29.00;56.10;;;;;;5013308;28;20113;-77
2023/06/18 09:23:33;;;;;;;1999.90;999.90;;;29.20;55.20;;;;;;5014828;28;20563;-77
2023/06/18 09:26:00;;;;;;;1999.90;999.90;;;29.30;54.10;;;;;;5014752;28;20034;-77
2023/06/18 09:28:26;;;;;;;1999.90;999.90;;;29.70;55.50;;;;;;5014965;28;20045;-77
2023/06/18 09:30:56;;;;;;;1999.90;999.90;;;29.90;54.10;;;;;;5014752;28;20035;-77
2023/06/18 09:33:33;;;;;;;1999.90;999.90;;;29.80;53.50;;;;;;5014718;28;20038;-77
2023/06/18 09:36:05;;;;;;;1999.90;999.90;;;30.00;53.90;;;;;;5014411;28;20041;-77
2023/06/18 09:38:38;;;;;;;1999.90;999.90;;;30.00;52.80;;;;;;5013352;28;20125;-77
2023/06/18 09:41:11;;;;;;;1999.90;999.90;;;30.40;52.30;;;;;;5014728;28;20555;-77
2023/06/18 09:43:43;;;;;;;1999.90;999.90;;;30.60;52.90;;;;;;5013338;28;20044;-77
2023/06/18 09:46:09;;;;;;;1999.90;999.90;;;30.80;51.20;;;;;;5012653;28;20089;-77
2023/06/18 09:48:46;;;;;;;1999.90;999.90;;;31.00;52.20;;;;;;5014357;28;20042;-77
2023/06/18 09:51:14;;;;;;;1999.90;999.90;;;30.60;52.30;;;;;;5014361;28;20081;-78
2023/06/18 09:53:40;;;;;;;1999.90;999.90;;;30.30;51.90;;;;;;5012817;28;20038;-77
2023/06/18 09:56:10;;;;;;;1999.90;999.90;;;30.20;51.30;;;;;;5014024;28;20039;-77
2023/06/18 09:58:47;;;;;;;1999.90;999.90;;;30.40;50.60;;;;;;5014659;28;20026;-77
2023/06/18 10:01:14;;;;;;;1999.90;999.90;;;30.40;52.90;;;;;;5014220;28;20031;-77
2023/06/18 10:03:40;;;;;;;1999.90;999.90;;;30.40;50.40;;;;;;5014703;28;20042;-77
2023/06/18 10:06:17;;;;;;;1999.90;999.90;;;30.50;50.40;;;;;;5014286;28;20031;-77
2023/06/18 10:08:48;;;;;;;1999.90;999.90;;;31.00;50.00;;;;;;5014382;28;20093;-77
2023/06/18 10:11:15;;;;;;;1999.90;999.90;;;30.80;50.80;;;;;;5014243;28;20026;-77
2023/06/18 10:13:47;;;;;;;1999.90;999.90;;;31.00;51.50;;;;;;5012841;28;20044;-77
2023/06/18 10:16:15;;;;;;;1999.90;999.90;;;30.90;50.30;;;;;;5014824;28;20089;-77
2023/06/18 10:18:59;;;;;;;1999.90;999.90;;;30.90;49.40;;;;;;5016557;28;20117;-77
2023/06/18 10:21:28;;;;;;;1999.90;999.90;;;31.10;49.30;;;;;;5012289;28;20501;-77
2023/06/18 10:24:04;;;;;;;1999.90;999.90;;;31.30;48.70;;;;;;5012674;28;20562;-77
2023/06/18 10:26:30;;;;;;;1999.90;999.90;;;31.60;49.90;;;;;;5013553;28;20180;-77
2023/06/18 10:28:57;;;;;;;1999.90;999.90;;;31.80;51.00;;;;;;5014033;28;20510;-76
2023/06/18 10:31:23;;;;;;;1999.90;999.90;;;31.80;47.70;;;;;;5012369;28;20492;-77
2023/06/18 10:33:50;;;;;;;1999.90;999.90;;;31.90;48.20;;;;;;5013973;28;20046;-77
2023/06/18 10:36:16;;;;;;;1999.90;999.90;;;32.10;48.10;;;;;;5013553;28;20041;-77
2023/06/18 10:38:42;;;;;;;1999.90;999.90;;;32.50;46.90;;;;;;5012466;28;20065;-77
2023/06/18 10:41:12;;;;;;;1999.90;999.90;;;32.70;46.20;;;;;;5013399;28;20475;-77
2023/06/18 10:43:40;;;;;;;1999.90;999.90;;;32.60;46.50;;;;;;5014011;28;20125;-77
2023/06/18 10:46:11;;;;;;;1999.90;999.90;;;32.40;46.10;;;;;;5013885;28;20496;-77
2023/06/18 10:48:37;;;;;;;1999.90;999.90;;;32.40;45.60;;;;;;5014004;28;20049;-77
2023/06/18 10:51:16;;;;;;;1999.90;999.90;;;32.30;46.30;;;;;;5013823;28;20034;-77
2023/06/18 10:53:43;;;;;;;1999.90;999.90;;;32.10;47.50;;;;;;5014324;28;20526;-77
2023/06/18 10:56:09;;;;;;;1999.90;999.90;;;32.20;45.10;;;;;;5014005;28;20053;-77
2023/06/18 10:58:38;;;;;;;1999.90;999.90;;;32.50;44.60;;;;;;5017415;28;20038;-77
2023/06/18 11:01:05;;;;;;;1999.90;999.90;;;32.40;45.40;;;;;;5017025;28;20033;-77
2023/06/18 11:03:38;;;;;;;1999.90;999.90;;;32.50;45.80;;;;;;5017072;28;20046;-77
2023/06/18 11:06:09;;;;;;;1999.90;999.90;;;32.40;45.00;;;;;;5015283;28;20041;-77
2023/06/18 11:08:35;;;;;;;1999.90;999.90;;;32.40;47.70;;;;;;5017072;28;20073;-77
2023/06/18 11:11:02;;;;;;;1999.90;999.90;;;32.30;47.50;;;;;;5016757;28;20038;-77
2023/06/18 11:13:36;;;;;;;1999.90;999.90;;;32.40;45.00;;;;;;5016952;28;20496;-77
2023/06/18 11:16:12;;;;;;;1999.90;999.90;;;32.70;45.40;;;;;;5016923;28;20034;-77
2023/06/18 11:18:40;;;;;;;1999.90;999.90;;;32.80;46.00;;;;;;5016887;28;20038;-78
2023/06/18 11:21:12;;;;;;;1999.90;999.90;;;32.80;44.00;;;;;;5016431;28;20022;-77
2023/06/18 11:23:38;;;;;;;1999.90;999.90;;;32.90;45.20;;;;;;5016846;28;20033;-77
2023/06/18 11:26:03;;;;;;;1999.90;999.90;;;32.70;44.30;;;;;;5016679;28;20036;-77
2023/06/18 11:28:30;;;;;;;1999.90;999.90;;;33.30;45.00;;;;;;5016897;28;20395;-77
2023/06/18 11:30:59;;;;;;;1999.90;999.90;;;32.80;43.70;;;;;;5015129;28;20030;-77
2023/06/18 11:33:27;;;;;;;1999.90;999.90;;;32.60;44.80;;;;;;5031438;28;20041;-77
2023/06/18 11:35:54;;;;;;;1999.90;999.90;;;33.00;43.10;;;;;;5016373;28;20066;-77
2023/06/18 11:38:21;;;;;;;1999.90;999.90;;;33.00;43.20;;;;;;5015157;28;20034;-77
2023/06/18 11:40:54;;;;;;;1999.90;999.90;;;33.30;43.10;;;;;;5015155;28;20030;-77
2023/06/18 11:43:20;;;;;;;1999.90;999.90;;;33.60;43.30;;;;;;5016863;28;20038;-77
2023/06/18 11:45:50;;;;;;;1999.90;999.90;;;33.70;44.70;;;;;;5016210;28;20038;-77
2023/06/18 11:48:16;;;;;;;1999.90;999.90;;;33.90;44.40;;;;;;5016306;28;20035;-77
2023/06/18 11:50:43;;;;;;;1999.90;999.90;;;34.10;44.60;;;;;;5016636;28;20034;-77
2023/06/18 11:53:10;;;;;;;1999.90;999.90;;;34.20;43.60;;;;;;5016368;28;20042;-77
2023/06/18 11:55:36;;;;;;;1999.90;999.90;;;34.30;41.80;;;;;;5014940;28;20035;-77
2023/06/18 11:58:02;;;;;;;1999.90;999.90;;;34.40;41.50;;;;;;5016242;28;20041;-78